SAVC/CRD METAR and TAF weather

Enter ICAO airport designator
Station Type Date Time Source
SAVC METAR 2018/12/17 02:00 UTC NOAA

SAVC 170200Z 32002KT CAVOK 13/02 Q1014


Station Type Date Time Source
SAVC Decoded METAR 2018/12/17 02:00 UTC NOAA

Comodoro Rivadavia Aerodrome, Argentina (SAVC) 45-47S 067-30W 46M
Dec 16, 2018 - 09:00 PM EST / 2018.12.17 0200 UTC
Wind: from the NW (320 degrees) at 2 MPH (2 KT):0
Visibility: greater than 7 mile(s):0
Temperature: 55 F (13 C)
Dew Point: 35 F (2 C)
Relative Humidity: 47%
Pressure (altimeter): 29.94 in. Hg (1014 hPa)
ob: SAVC 170200Z 32002KT CAVOK 13/02 Q1014
cycle: 2

Station Type Date Time Source
SAVC TAF 2018/12/17 00:03 UTC NOAA

TAF SAVC 162300Z 1700/1724 VRB05KT 9999 FEW030 SCT090 TX22/1718Z TN14/1710Z
BECMG 1706/1708 27015KT CAVOK
BECMG 1718/1720 09010KT


Example: see airport list